sensor_id;sensor_type;location;lat;lon;timestamp;pressure;altitude;pressure_sealevel;temperature;humidity
21547;BME280;41275;51.912;4.388;2023-02-17T00:00:58;101919.69;;;15.55;56.33
21547;BME280;41275;51.912;4.388;2023-02-17T00:06:22;101922.00;;;15.63;56.19
21547;BME280;41275;51.912;4.388;2023-02-17T00:11:43;101919.56;;;15.62;56.32
21547;BME280;41275;51.912;4.388;2023-02-17T00:17:05;101930.25;;;15.62;56.00
21547;BME280;41275;51.912;4.388;2023-02-17T00:22:26;101929.00;;;15.53;56.17
21547;BME280;41275;51.912;4.388;2023-02-17T00:27:47;101930.16;;;15.45;56.56
21547;BME280;41275;51.912;4.388;2023-02-17T00:33:08;101919.81;;;15.37;56.72
21547;BME280;41275;51.912;4.388;2023-02-17T00:38:30;101913.19;;;15.28;56.55
21547;BME280;41275;51.912;4.388;2023-02-17T00:43:51;101909.81;;;15.20;56.94
21547;BME280;41275;51.912;4.388;2023-02-17T00:49:18;101917.16;;;15.25;57.05
21547;BME280;41275;51.912;4.388;2023-02-17T00:54:39;101907.03;;;15.27;56.80
21547;BME280;41275;51.912;4.388;2023-02-17T01:00:03;101913.88;;;15.23;57.00
21547;BME280;41275;51.912;4.388;2023-02-17T01:05:25;101914.69;;;15.23;57.07
21547;BME280;41275;51.912;4.388;2023-02-17T01:10:47;101928.38;;;15.27;57.07
21547;BME280;41275;51.912;4.388;2023-02-17T01:16:17;101914.25;;;15.27;56.81
21547;BME280;41275;51.912;4.388;2023-02-17T01:21:39;101923.28;;;15.26;57.15
21547;BME280;41275;51.912;4.388;2023-02-17T01:27:00;101925.16;;;15.25;57.36
21547;BME280;41275;51.912;4.388;2023-02-17T01:32:21;101898.13;;;15.21;57.61
21547;BME280;41275;51.912;4.388;2023-02-17T01:37:43;101893.34;;;15.23;57.10
21547;BME280;41275;51.912;4.388;2023-02-17T01:43:05;101894.31;;;15.29;57.63
21547;BME280;41275;51.912;4.388;2023-02-17T01:48:52;101890.81;;;15.29;56.94
21547;BME280;41275;51.912;4.388;2023-02-17T01:54:24;101882.25;;;15.27;57.48
21547;BME280;41275;51.912;4.388;2023-02-17T01:59:47;101887.31;;;15.28;57.11
21547;BME280;41275;51.912;4.388;2023-02-17T02:05:10;101892.56;;;15.23;57.48
21547;BME280;41275;51.912;4.388;2023-02-17T02:10:32;101865.53;;;15.31;57.23
21547;BME280;41275;51.912;4.388;2023-02-17T02:16:19;101856.28;;;15.34;57.29
21547;BME280;41275;51.912;4.388;2023-02-17T02:33:12;101865.19;;;15.39;57.06
21547;BME280;41275;51.912;4.388;2023-02-17T02:38:43;101860.19;;;15.43;57.33
21547;BME280;41275;51.912;4.388;2023-02-17T02:44:08;101857.97;;;15.52;57.36
21547;BME280;41275;51.912;4.388;2023-02-17T02:49:30;101837.78;;;15.56;57.25
21547;BME280;41275;51.912;4.388;2023-02-17T02:55:06;101842.31;;;15.67;57.46
21547;BME280;41275;51.912;4.388;2023-02-17T03:06:27;101815.78;;;15.72;57.14
21547;BME280;41275;51.912;4.388;2023-02-17T03:11:50;101801.88;;;15.87;57.09
21547;BME280;41275;51.912;4.388;2023-02-17T03:17:13;101785.88;;;15.87;57.02
21547;BME280;41275;51.912;4.388;2023-02-17T03:22:37;101799.84;;;16.06;56.94
21547;BME280;41275;51.912;4.388;2023-02-17T03:28:00;101789.84;;;16.13;57.09
21547;BME280;41275;51.912;4.388;2023-02-17T03:33:22;101796.06;;;16.18;56.41
21547;BME280;41275;51.912;4.388;2023-02-17T03:38:43;101798.53;;;16.20;56.23
21547;BME280;41275;51.912;4.388;2023-02-17T03:44:04;101806.06;;;16.23;56.11
21547;BME280;41275;51.912;4.388;2023-02-17T03:49:25;101804.19;;;16.24;55.97
21547;BME280;41275;51.912;4.388;2023-02-17T03:54:47;101806.94;;;16.29;56.26
21547;BME280;41275;51.912;4.388;2023-02-17T04:00:08;101822.88;;;16.24;56.06
21547;BME280;41275;51.912;4.388;2023-02-17T04:05:29;101824.97;;;16.22;56.00
21547;BME280;41275;51.912;4.388;2023-02-17T04:10:56;101816.97;;;16.22;55.86
21547;BME280;41275;51.912;4.388;2023-02-17T04:16:18;101832.44;;;16.19;55.62
21547;BME280;41275;51.912;4.388;2023-02-17T04:21:39;101814.28;;;16.22;56.01
21547;BME280;41275;51.912;4.388;2023-02-17T04:27:01;101820.91;;;16.19;55.58
21547;BME280;41275;51.912;4.388;2023-02-17T04:32:22;101816.63;;;16.18;55.80
21547;BME280;41275;51.912;4.388;2023-02-17T04:37:43;101806.88;;;16.24;56.14
21547;BME280;41275;51.912;4.388;2023-02-17T04:43:05;101793.34;;;16.30;56.41
21547;BME280;41275;51.912;4.388;2023-02-17T04:48:26;101789.72;;;16.36;56.25
21547;BME280;41275;51.912;4.388;2023-02-17T04:53:47;101784.22;;;16.43;56.43
21547;BME280;41275;51.912;4.388;2023-02-17T04:59:08;101798.41;;;16.43;56.53
21547;BME280;41275;51.912;4.388;2023-02-17T05:04:30;101797.81;;;16.41;56.51
21547;BME280;41275;51.912;4.388;2023-02-17T05:09:51;101807.69;;;16.41;56.22
21547;BME280;41275;51.912;4.388;2023-02-17T05:15:14;101813.50;;;16.38;56.41
21547;BME280;41275;51.912;4.388;2023-02-17T05:20:35;101793.66;;;16.34;56.66
21547;BME280;41275;51.912;4.388;2023-02-17T05:25:56;101792.38;;;16.36;57.07
21547;BME280;41275;51.912;4.388;2023-02-17T05:31:17;101782.09;;;16.45;56.49
21547;BME280;41275;51.912;4.388;2023-02-17T05:36:39;101766.00;;;16.40;56.99
21547;BME280;41275;51.912;4.388;2023-02-17T05:42:00;101751.44;;;16.48;56.96
21547;BME280;41275;51.912;4.388;2023-02-17T05:47:21;101746.25;;;16.41;56.57
21547;BME280;41275;51.912;4.388;2023-02-17T05:52:44;101750.03;;;16.45;57.05
21547;BME280;41275;51.912;4.388;2023-02-17T05:58:06;101749.50;;;16.60;56.79
21547;BME280;41275;51.912;4.388;2023-02-17T06:03:27;101726.56;;;16.64;57.22
21547;BME280;41275;51.912;4.388;2023-02-17T06:08:48;101728.97;;;16.65;56.80
21547;BME280;41275;51.912;4.388;2023-02-17T06:14:09;101721.97;;;16.59;56.70
21547;BME280;41275;51.912;4.388;2023-02-17T06:19:31;101748.69;;;16.59;56.83
21547;BME280;41275;51.912;4.388;2023-02-17T06:24:52;101742.75;;;16.57;56.91
21547;BME280;41275;51.912;4.388;2023-02-17T06:30:13;101749.50;;;16.60;57.00
21547;BME280;41275;51.912;4.388;2023-02-17T06:35:35;101739.59;;;16.60;56.81
21547;BME280;41275;51.912;4.388;2023-02-17T06:40:56;101722.59;;;16.66;56.57
21547;BME280;41275;51.912;4.388;2023-02-17T06:46:17;101731.44;;;16.67;56.64
21547;BME280;41275;51.912;4.388;2023-02-17T06:51:39;101735.22;;;16.71;57.02
21547;BME280;41275;51.912;4.388;2023-02-17T06:57:00;101736.94;;;16.77;56.65
21547;BME280;41275;51.912;4.388;2023-02-17T07:02:21;101738.38;;;16.68;56.53
21547;BME280;41275;51.912;4.388;2023-02-17T07:07:43;101734.09;;;16.67;56.69
21547;BME280;41275;51.912;4.388;2023-02-17T07:13:04;101714.88;;;16.70;56.32
21547;BME280;41275;51.912;4.388;2023-02-17T07:18:25;101753.69;;;16.73;56.01
21547;BME280;41275;51.912;4.388;2023-02-17T07:23:47;101747.47;;;16.67;55.68
21547;BME280;41275;51.912;4.388;2023-02-17T07:29:08;101744.13;;;16.60;56.18
21547;BME280;41275;51.912;4.388;2023-02-17T07:34:30;101745.53;;;16.62;56.40
21547;BME280;41275;51.912;4.388;2023-02-17T07:39:51;101751.03;;;16.56;56.00
21547;BME280;41275;51.912;4.388;2023-02-17T07:45:12;101738.22;;;16.58;55.94
21547;BME280;41275;51.912;4.388;2023-02-17T07:50:33;101761.94;;;16.54;55.48
21547;BME280;41275;51.912;4.388;2023-02-17T07:55:58;101757.97;;;16.57;56.06
21547;BME280;41275;51.912;4.388;2023-02-17T08:01:22;101749.72;;;16.58;55.96
21547;BME280;41275;51.912;4.388;2023-02-17T08:06:43;101751.34;;;16.59;56.29
21547;BME280;41275;51.912;4.388;2023-02-17T08:12:05;101779.53;;;16.67;56.22
21547;BME280;41275;51.912;4.388;2023-02-17T08:17:44;101795.06;;;16.70;55.99
21547;BME280;41275;51.912;4.388;2023-02-17T08:23:06;101799.47;;;16.76;55.79
21547;BME280;41275;51.912;4.388;2023-02-17T08:28:27;101790.22;;;16.67;55.84
21547;BME280;41275;51.912;4.388;2023-02-17T08:33:48;101803.91;;;16.71;55.54
21547;BME280;41275;51.912;4.388;2023-02-17T08:39:12;101770.06;;;16.76;55.78
21547;BME280;41275;51.912;4.388;2023-02-17T08:44:34;101790.72;;;16.81;55.57
21547;BME280;41275;51.912;4.388;2023-02-17T08:49:56;101780.28;;;16.79;55.24
21547;BME280;41275;51.912;4.388;2023-02-17T08:55:17;101797.06;;;16.75;55.49
21547;BME280;41275;51.912;4.388;2023-02-17T09:00:40;101793.88;;;16.78;55.31
21547;BME280;41275;51.912;4.388;2023-02-17T09:06:04;101800.28;;;16.77;55.46
21547;BME280;41275;51.912;4.388;2023-02-17T09:11:26;101813.41;;;16.78;55.05
21547;BME280;41275;51.912;4.388;2023-02-17T09:16:47;101798.66;;;16.76;55.26
21547;BME280;41275;51.912;4.388;2023-02-17T09:22:11;101834.47;;;16.75;55.34
21547;BME280;41275;51.912;4.388;2023-02-17T09:27:34;101819.66;;;16.84;55.03
21547;BME280;41275;51.912;4.388;2023-02-17T09:32:56;101819.16;;;17.04;55.22
21547;BME280;41275;51.912;4.388;2023-02-17T09:38:20;101804.28;;;17.13;55.29
21547;BME280;41275;51.912;4.388;2023-02-17T09:43:43;101809.16;;;17.16;54.79
21547;BME280;41275;51.912;4.388;2023-02-17T09:49:20;101824.66;;;17.36;55.25
21547;BME280;41275;51.912;4.388;2023-02-17T09:55:07;101832.72;;;17.58;54.57
21547;BME280;41275;51.912;4.388;2023-02-17T10:00:39;101830.69;;;17.65;54.38
21547;BME280;41275;51.912;4.388;2023-02-17T10:06:20;101884.34;;;17.53;53.64
21547;BME280;41275;51.912;4.388;2023-02-17T10:11:49;101841.50;;;17.53;54.26
21547;BME280;41275;51.912;4.388;2023-02-17T10:23:16;101870.00;;;17.42;53.87
21547;BME280;41275;51.912;4.388;2023-02-17T10:29:06;101874.69;;;17.35;53.87
21547;BME280;41275;51.912;4.388;2023-02-17T10:34:36;101876.56;;;17.35;54.18
21547;BME280;41275;51.912;4.388;2023-02-17T10:39:57;101880.78;;;17.31;53.62
21547;BME280;41275;51.912;4.388;2023-02-17T10:45:32;101893.53;;;17.24;53.62
21547;BME280;41275;51.912;4.388;2023-02-17T10:50:58;101895.22;;;17.13;53.96
21547;BME280;41275;51.912;4.388;2023-02-17T10:56:25;101894.44;;;16.96;54.02
21547;BME280;41275;51.912;4.388;2023-02-17T11:01:48;101898.16;;;16.95;54.20
21547;BME280;41275;51.912;4.388;2023-02-17T11:07:12;101925.31;;;16.86;54.36
21547;BME280;41275;51.912;4.388;2023-02-17T11:12:40;101938.88;;;16.85;54.45
21547;BME280;41275;51.912;4.388;2023-02-17T11:18:16;101903.47;;;16.78;54.46
21547;BME280;41275;51.912;4.388;2023-02-17T11:23:51;101921.50;;;16.82;54.53
21547;BME280;41275;51.912;4.388;2023-02-17T11:29:16;101927.25;;;16.91;54.43
21547;BME280;41275;51.912;4.388;2023-02-17T11:34:39;101902.13;;;16.92;54.14
21547;BME280;41275;51.912;4.388;2023-02-17T11:40:22;101915.56;;;16.97;54.40
21547;BME280;41275;51.912;4.388;2023-02-17T11:46:01;101930.56;;;16.98;54.15
21547;BME280;41275;51.912;4.388;2023-02-17T11:51:42;101931.38;;;16.99;53.94
21547;BME280;41275;51.912;4.388;2023-02-17T11:57:37;101944.03;;;17.03;53.74
21547;BME280;41275;51.912;4.388;2023-02-17T12:14:13;101936.63;;;17.61;53.44
21547;BME280;41275;51.912;4.388;2023-02-17T12:20:01;101951.47;;;17.52;53.21
21547;BME280;41275;51.912;4.388;2023-02-17T12:25:32;101940.13;;;17.61;53.10
21547;BME280;41275;51.912;4.388;2023-02-17T12:37:05;101984.22;;;17.59;52.37
21547;BME280;41275;51.912;4.388;2023-02-17T12:42:40;101981.50;;;17.54;52.23
21547;BME280;41275;51.912;4.388;2023-02-17T12:48:15;101984.31;;;17.47;52.31
21547;BME280;41275;51.912;4.388;2023-02-17T12:53:54;101999.16;;;17.38;52.52
21547;BME280;41275;51.912;4.388;2023-02-17T12:59:26;102012.44;;;17.33;52.51
21547;BME280;41275;51.912;4.388;2023-02-17T13:04:53;101994.28;;;17.35;52.77
21547;BME280;41275;51.912;4.388;2023-02-17T13:10:36;101990.16;;;17.27;52.32
21547;BME280;41275;51.912;4.388;2023-02-17T13:16:09;101982.59;;;17.24;52.44
21547;BME280;41275;51.912;4.388;2023-02-17T13:21:32;101988.78;;;17.25;52.74
21547;BME280;41275;51.912;4.388;2023-02-17T13:26:53;102014.56;;;17.48;52.62
21547;BME280;41275;51.912;4.388;2023-02-17T13:32:26;102002.16;;;17.58;51.90
21547;BME280;41275;51.912;4.388;2023-02-17T13:37:48;101996.63;;;17.48;52.07
21547;BME280;41275;51.912;4.388;2023-02-17T13:43:17;102005.66;;;17.76;51.94
21547;BME280;41275;51.912;4.388;2023-02-17T13:48:38;101990.06;;;17.89;51.42
21547;BME280;41275;51.912;4.388;2023-02-17T13:54:07;102023.50;;;17.87;51.46
21547;BME280;41275;51.912;4.388;2023-02-17T13:59:29;101990.81;;;17.85;51.74
21547;BME280;41275;51.912;4.388;2023-02-17T14:04:50;101969.88;;;17.82;51.12
21547;BME280;41275;51.912;4.388;2023-02-17T14:10:23;101993.16;;;17.81;51.36
21547;BME280;41275;51.912;4.388;2023-02-17T14:15:54;101996.72;;;17.87;51.66
21547;BME280;41275;51.912;4.388;2023-02-17T14:21:25;102002.25;;;17.80;52.00
21547;BME280;41275;51.912;4.388;2023-02-17T14:26:48;102007.44;;;17.87;51.73
21547;BME280;41275;51.912;4.388;2023-02-17T14:32:47;102004.75;;;17.87;51.64
21547;BME280;41275;51.912;4.388;2023-02-17T14:38:23;102000.50;;;18.08;51.95
21547;BME280;41275;51.912;4.388;2023-02-17T14:43:44;102001.50;;;18.24;51.19
21547;BME280;41275;51.912;4.388;2023-02-17T14:49:06;102016.69;;;18.18;51.23
21547;BME280;41275;51.912;4.388;2023-02-17T14:54:28;102024.25;;;18.21;51.26
21547;BME280;41275;51.912;4.388;2023-02-17T14:59:49;102019.84;;;18.32;51.10
21547;BME280;41275;51.912;4.388;2023-02-17T15:05:17;102019.25;;;18.30;50.96
21547;BME280;41275;51.912;4.388;2023-02-17T15:10:38;102032.22;;;18.16;51.17
21547;BME280;41275;51.912;4.388;2023-02-17T15:15:59;102036.44;;;18.12;50.95
21547;BME280;41275;51.912;4.388;2023-02-17T15:21:28;102048.53;;;18.14;51.11
21547;BME280;41275;51.912;4.388;2023-02-17T15:26:49;102035.06;;;18.09;51.37
21547;BME280;41275;51.912;4.388;2023-02-17T15:32:15;102034.50;;;18.07;50.87
21547;BME280;41275;51.912;4.388;2023-02-17T15:37:40;102042.81;;;17.89;51.30
21547;BME280;41275;51.912;4.388;2023-02-17T15:43:01;102047.09;;;17.73;51.59
21547;BME280;41275;51.912;4.388;2023-02-17T15:48:26;102059.69;;;17.73;51.82
21547;BME280;41275;51.912;4.388;2023-02-17T15:53:50;102073.69;;;17.63;52.10
21547;BME280;41275;51.912;4.388;2023-02-17T15:59:17;102079.44;;;17.55;52.05
21547;BME280;41275;51.912;4.388;2023-02-17T16:04:39;102074.84;;;17.50;52.24
21547;BME280;41275;51.912;4.388;2023-02-17T16:10:00;102081.88;;;17.39;52.61
21547;BME280;41275;51.912;4.388;2023-02-17T16:15:23;102098.19;;;17.38;52.69
21547;BME280;41275;51.912;4.388;2023-02-17T16:20:44;102090.03;;;17.33;52.72
21547;BME280;41275;51.912;4.388;2023-02-17T16:26:25;102094.03;;;17.30;53.14
21547;BME280;41275;51.912;4.388;2023-02-17T16:31:47;102087.53;;;17.26;52.87
21547;BME280;41275;51.912;4.388;2023-02-17T16:37:13;102101.72;;;17.27;53.24
21547;BME280;41275;51.912;4.388;2023-02-17T16:42:34;102109.16;;;17.25;53.21
21547;BME280;41275;51.912;4.388;2023-02-17T16:47:58;102109.75;;;17.27;53.13
21547;BME280;41275;51.912;4.388;2023-02-17T16:53:19;102127.22;;;17.17;53.35
21547;BME280;41275;51.912;4.388;2023-02-17T16:58:40;102138.41;;;17.14;53.74
21547;BME280;41275;51.912;4.388;2023-02-17T17:04:01;102133.06;;;17.14;53.58
21547;BME280;41275;51.912;4.388;2023-02-17T17:09:23;102130.13;;;17.16;53.72
21547;BME280;41275;51.912;4.388;2023-02-17T17:14:44;102135.94;;;17.13;53.58
21547;BME280;41275;51.912;4.388;2023-02-17T17:20:06;102152.94;;;17.18;53.78
21547;BME280;41275;51.912;4.388;2023-02-17T17:25:28;102151.66;;;17.09;53.48
21547;BME280;41275;51.912;4.388;2023-02-17T17:30:49;102154.84;;;17.06;53.50
21547;BME280;41275;51.912;4.388;2023-02-17T17:36:37;102141.25;;;16.96;53.79
21547;BME280;41275;51.912;4.388;2023-02-17T17:41:59;102182.78;;;16.87;53.77
21547;BME280;41275;51.912;4.388;2023-02-17T17:47:20;102198.47;;;16.83;54.35
21547;BME280;41275;51.912;4.388;2023-02-17T17:52:42;102182.09;;;16.80;54.09
21547;BME280;41275;51.912;4.388;2023-02-17T17:58:03;102198.38;;;16.78;54.43
21547;BME280;41275;51.912;4.388;2023-02-17T18:03:24;102204.41;;;16.74;54.37
21547;BME280;41275;51.912;4.388;2023-02-17T18:08:47;102222.50;;;16.72;54.29
21547;BME280;41275;51.912;4.388;2023-02-17T18:14:11;102219.50;;;16.68;54.51
21547;BME280;41275;51.912;4.388;2023-02-17T18:19:33;102226.44;;;16.69;54.10
21547;BME280;41275;51.912;4.388;2023-02-17T18:24:54;102206.81;;;16.63;54.15
21547;BME280;41275;51.912;4.388;2023-02-17T18:30:19;102214.13;;;16.56;54.65
21547;BME280;41275;51.912;4.388;2023-02-17T18:35:41;102215.75;;;16.45;54.47
21547;BME280;41275;51.912;4.388;2023-02-17T18:41:04;102220.06;;;16.47;54.61
21547;BME280;41275;51.912;4.388;2023-02-17T18:46:25;102230.19;;;16.56;54.22
21547;BME280;41275;51.912;4.388;2023-02-17T18:51:47;102238.19;;;16.68;54.84
21547;BME280;41275;51.912;4.388;2023-02-17T18:57:08;102235.78;;;16.66;54.64
21547;BME280;41275;51.912;4.388;2023-02-17T19:02:29;102245.66;;;16.78;54.66
21547;BME280;41275;51.912;4.388;2023-02-17T19:07:50;102236.97;;;16.82;54.15
21547;BME280;41275;51.912;4.388;2023-02-17T19:13:12;102228.00;;;16.77;54.23
21547;BME280;41275;51.912;4.388;2023-02-17T19:18:33;102245.19;;;16.81;54.73
21547;BME280;41275;51.912;4.388;2023-02-17T19:23:54;102249.63;;;16.87;54.55
21547;BME280;41275;51.912;4.388;2023-02-17T19:29:15;102276.69;;;17.02;54.44
21547;BME280;41275;51.912;4.388;2023-02-17T19:34:37;102304.47;;;17.13;54.03
21547;BME280;41275;51.912;4.388;2023-02-17T19:39:58;102292.84;;;17.07;54.17
21547;BME280;41275;51.912;4.388;2023-02-17T19:45:20;102318.09;;;17.11;54.22
21547;BME280;41275;51.912;4.388;2023-02-17T19:50:41;102325.75;;;17.20;54.22
21547;BME280;41275;51.912;4.388;2023-02-17T19:56:14;102325.75;;;17.20;54.03
21547;BME280;41275;51.912;4.388;2023-02-17T20:01:35;102312.84;;;17.16;53.93
21547;BME280;41275;51.912;4.388;2023-02-17T20:06:57;102318.53;;;17.20;53.77
21547;BME280;41275;51.912;4.388;2023-02-17T20:12:18;102322.72;;;17.04;54.08
21547;BME280;41275;51.912;4.388;2023-02-17T20:17:39;102335.19;;;16.99;53.78
21547;BME280;41275;51.912;4.388;2023-02-17T20:23:01;102317.03;;;16.89;53.93
21547;BME280;41275;51.912;4.388;2023-02-17T20:28:24;102326.91;;;16.88;54.07
21547;BME280;41275;51.912;4.388;2023-02-17T20:33:45;102326.22;;;16.81;54.16
21547;BME280;41275;51.912;4.388;2023-02-17T20:39:07;102328.88;;;16.81;54.00
21547;BME280;41275;51.912;4.388;2023-02-17T20:44:28;102330.88;;;16.74;54.14
21547;BME280;41275;51.912;4.388;2023-02-17T20:49:49;102332.44;;;16.63;53.98
21547;BME280;41275;51.912;4.388;2023-02-17T20:55:12;102335.47;;;16.67;54.47
21547;BME280;41275;51.912;4.388;2023-02-17T21:00:34;102336.03;;;16.69;54.54
21547;BME280;41275;51.912;4.388;2023-02-17T21:05:55;102327.72;;;16.77;54.47
21547;BME280;41275;51.912;4.388;2023-02-17T21:11:17;102322.72;;;16.81;54.54
21547;BME280;41275;51.912;4.388;2023-02-17T21:16:38;102303.19;;;16.80;54.33
21547;BME280;41275;51.912;4.388;2023-02-17T21:21:59;102308.44;;;16.87;54.62
21547;BME280;41275;51.912;4.388;2023-02-17T21:27:21;102314.34;;;16.89;54.78
21547;BME280;41275;51.912;4.388;2023-02-17T21:32:42;102314.94;;;16.91;54.37
21547;BME280;41275;51.912;4.388;2023-02-17T21:38:04;102313.78;;;16.87;54.61
21547;BME280;41275;51.912;4.388;2023-02-17T21:43:25;102310.88;;;16.88;54.80
21547;BME280;41275;51.912;4.388;2023-02-17T21:49:05;102315.41;;;16.88;54.64
21547;BME280;41275;51.912;4.388;2023-02-17T21:54:26;102307.38;;;16.88;54.98
21547;BME280;41275;51.912;4.388;2023-02-17T21:59:47;102303.31;;;16.97;54.75
21547;BME280;41275;51.912;4.388;2023-02-17T22:05:08;102301.94;;;17.06;54.80
21547;BME280;41275;51.912;4.388;2023-02-17T22:10:29;102302.84;;;17.00;54.23
21547;BME280;41275;51.912;4.388;2023-02-17T22:15:57;102300.41;;;16.99;54.54
21547;BME280;41275;51.912;4.388;2023-02-17T22:21:18;102302.50;;;16.97;54.62
21547;BME280;41275;51.912;4.388;2023-02-17T22:26:40;102297.41;;;16.95;54.36
21547;BME280;41275;51.912;4.388;2023-02-17T22:32:01;102297.84;;;16.92;54.08
21547;BME280;41275;51.912;4.388;2023-02-17T22:37:22;102304.56;;;16.71;54.31
21547;BME280;41275;51.912;4.388;2023-02-17T22:42:43;102297.78;;;16.45;54.44
21547;BME280;41275;51.912;4.388;2023-02-17T22:48:05;102292.38;;;16.22;54.54
21547;BME280;41275;51.912;4.388;2023-02-17T22:53:26;102295.25;;;16.08;54.67
21547;BME280;41275;51.912;4.388;2023-02-17T22:58:47;102300.22;;;16.05;54.98
21547;BME280;41275;51.912;4.388;2023-02-17T23:04:14;102297.44;;;16.00;55.44
21547;BME280;41275;51.912;4.388;2023-02-17T23:09:35;102302.78;;;16.00;55.58
21547;BME280;41275;51.912;4.388;2023-02-17T23:14:56;102295.88;;;15.92;55.33
21547;BME280;41275;51.912;4.388;2023-02-17T23:20:18;102292.53;;;15.97;55.91
21547;BME280;41275;51.912;4.388;2023-02-17T23:25:47;102285.22;;;15.92;55.74
21547;BME280;41275;51.912;4.388;2023-02-17T23:31:09;102259.41;;;15.86;55.86
21547;BME280;41275;51.912;4.388;2023-02-17T23:36:30;102249.78;;;15.85;56.05
21547;BME280;41275;51.912;4.388;2023-02-17T23:41:52;102254.91;;;15.98;56.09
21547;BME280;41275;51.912;4.388;2023-02-17T23:47:13;102248.28;;;15.89;56.00
21547;BME280;41275;51.912;4.388;2023-02-17T23:52:34;102234.94;;;15.89;56.36
21547;BME280;41275;51.912;4.388;2023-02-17T23:57:55;102245.38;;;15.90;56.24
